Terminal Aerodrome Forecast
Issued by NWS Cleveland, OH

Home | Current Version | Previous Version | Graphics & Text | Print | Product List | Glossary On
Versions: 1 2 3 4 5 6 7 8 9 10 11 12
428
FTUS41 KCLE 251720
TAFERI
TAF
KERI 251720Z 2518/2618 28010G20KT P6SM SKC
     FM260400 17006KT P6SM OVC100
     FM261000 18008KT P6SM OVC035
     FM261200 20007KT 6SM -TSRA SCT025 OVC035CB
     FM261300 21008KT P6SM OVC035
     FM261700 23007KT P6SM OVC250=

USA.gov is the U.S. government's official web portal to all federal, state and local government web resources and services.